createdAt,value
2022-09-14T00:16:25.576Z,19.55
2022-09-14T00:22:09.956Z,17.71
2022-09-14T00:25:04.933Z,19.62
2022-09-14T00:27:37.057Z,19.65
2022-09-14T00:33:17.321Z,19.53
2022-09-14T00:35:51.486Z,18.68
2022-09-14T00:41:26.219Z,19.06
2022-09-14T00:43:58.286Z,18.31
2022-09-14T00:46:32.239Z,17.50
2022-09-14T00:49:08.657Z,17.88
2022-09-14T00:54:45.961Z,16.49
2022-09-14T00:57:18.246Z,17.63
2022-09-14T00:59:52.709Z,18.58
2022-09-14T01:18:16.995Z,18.33
2022-09-14T01:24:34.193Z,19.54
2022-09-14T01:27:28.813Z,19.54
2022-09-14T01:30:10.040Z,17.65
2022-09-14T01:36:10.521Z,18.95
2022-09-14T01:38:41.934Z,19.43
2022-09-14T01:44:20.094Z,19.38
2022-09-14T01:46:53.182Z,18.48
2022-09-14T01:49:29.476Z,18.14
2022-09-14T01:52:04.280Z,19.49
2022-09-14T01:54:56.829Z,19.49
2022-09-14T02:03:45.493Z,18.69
2022-09-14T02:06:23.007Z,16.58
2022-09-14T02:11:48.954Z,16.85
2022-09-14T02:20:49.913Z,19.41
2022-09-14T02:26:29.962Z,17.46
2022-09-14T02:29:05.395Z,17.92
2022-09-14T02:31:46.742Z,19.21
2022-09-14T02:34:32.449Z,18.20
2022-09-14T02:37:16.187Z,18.84
2022-09-14T02:39:52.889Z,17.54
2022-09-14T02:55:09.552Z,19.30
2022-09-14T02:58:09.627Z,19.28
2022-09-14T03:00:42.182Z,17.63
2022-09-14T03:03:13.432Z,18.97
2022-09-14T03:05:46.175Z,18.88
2022-09-14T03:08:18.167Z,18.83
2022-09-14T03:10:53.810Z,18.66
2022-09-14T03:16:35.405Z,17.22
2022-09-14T03:19:35.846Z,19.31
2022-09-14T03:25:54.465Z,19.28
2022-09-14T03:28:25.205Z,19.28
2022-09-14T03:34:06.905Z,18.54
2022-09-14T03:36:36.068Z,19.25
2022-09-14T03:39:13.108Z,19.25
2022-09-14T03:45:16.482Z,19.27
2022-09-14T03:47:50.140Z,18.55
2022-09-14T03:50:20.432Z,18.61
2022-09-14T03:52:49.969Z,16.20
2022-09-14T03:55:21.860Z,19.07
2022-09-14T03:57:54.389Z,19.07
2022-09-14T04:00:26.375Z,18.64
2022-09-14T04:02:58.785Z,19.15
2022-09-14T04:05:27.834Z,19.25
2022-09-14T04:07:57.497Z,19.15
2022-09-14T04:10:26.786Z,16.43
2022-09-14T04:13:07.058Z,19.25
2022-09-14T04:15:35.812Z,17.32
2022-09-14T04:18:05.827Z,18.94
2022-09-14T04:20:34.666Z,17.28
2022-09-14T04:23:03.295Z,18.38
2022-09-14T04:42:04.379Z,19.59
2022-09-14T04:44:36.766Z,19.21
2022-09-14T04:47:11.121Z,17.68
2022-09-14T04:49:40.771Z,19.54
2022-09-14T04:58:21.893Z,19.31
2022-09-14T05:00:50.031Z,19.28
2022-09-14T05:03:18.486Z,17.88
2022-09-14T05:05:46.751Z,17.94
2022-09-14T05:08:14.937Z,19.29
2022-09-14T05:10:45.860Z,18.76
2022-09-14T05:13:16.363Z,16.54
2022-09-14T05:15:47.265Z,17.62
2022-09-14T05:18:15.644Z,19.27
2022-09-14T05:20:44.329Z,19.14
2022-09-14T05:23:15.956Z,19.13
2022-09-14T05:25:48.058Z,17.98
2022-09-14T05:28:19.811Z,18.82
2022-09-14T05:30:50.486Z,15.77
2022-09-14T05:33:19.287Z,18.68
2022-09-14T05:35:50.721Z,17.48
2022-09-14T05:38:19.362Z,16.44
2022-09-14T05:40:47.754Z,19.30
2022-09-14T05:43:17.005Z,19.30
2022-09-14T05:45:45.561Z,19.16
2022-09-14T05:48:15.193Z,18.08
2022-09-14T05:50:43.861Z,17.87
2022-09-14T05:53:15.331Z,18.01
2022-09-14T05:55:44.028Z,19.10
2022-09-14T05:58:13.521Z,17.77
2022-09-14T06:00:42.149Z,19.32
2022-09-14T06:03:10.339Z,19.05
2022-09-14T06:05:40.443Z,18.28
2022-09-14T06:08:09.708Z,18.57
2022-09-14T06:10:38.598Z,18.06
2022-09-14T06:13:07.049Z,18.40
2022-09-14T06:15:38.615Z,18.22
2022-09-14T06:18:16.692Z,19.33
2022-09-14T06:20:56.366Z,19.43
2022-09-14T06:23:25.181Z,18.16
2022-09-14T06:25:55.721Z,18.49
2022-09-14T06:28:25.860Z,18.44
2022-09-14T06:30:53.989Z,18.59
2022-09-14T06:33:22.633Z,19.55
2022-09-14T06:36:00.351Z,19.03
2022-09-14T06:41:29.059Z,19.62
2022-09-14T06:47:37.134Z,19.65
2022-09-14T06:50:08.594Z,19.28
2022-09-14T06:53:07.016Z,17.94
2022-09-14T07:02:24.072Z,19.54
2022-09-14T07:04:53.791Z,18.68
2022-09-14T07:14:03.142Z,19.53
2022-09-14T07:16:37.931Z,19.57
2022-09-14T07:22:16.382Z,19.10
2022-09-14T07:27:56.483Z,18.92
2022-09-14T07:30:28.623Z,18.84
2022-09-14T07:36:34.437Z,19.67
2022-09-14T07:39:06.942Z,18.41
2022-09-14T07:44:48.259Z,18.17
2022-09-14T07:47:20.319Z,19.17
2022-09-14T07:49:49.744Z,17.00
2022-09-14T07:55:28.589Z,19.89
2022-09-14T07:57:58.187Z,18.38
2022-09-14T08:06:35.006Z,18.79
2022-09-14T08:18:36.753Z,19.66
2022-09-14T08:21:12.377Z,20.23
2022-09-14T08:24:07.848Z,20.48
2022-09-14T08:30:17.522Z,20.60
2022-09-14T08:39:09.744Z,18.88
2022-09-14T08:41:44.271Z,19.65
2022-09-14T08:44:35.591Z,20.70
2022-09-14T08:47:12.739Z,20.50
2022-09-14T08:49:46.715Z,20.82
2022-09-14T08:52:24.586Z,20.86
2022-09-14T08:54:56.699Z,20.21
2022-09-14T08:57:32.689Z,20.81
2022-09-14T09:00:08.180Z,21.06
2022-09-14T09:02:57.298Z,21.02
2022-09-14T09:05:35.580Z,21.00
2022-09-14T09:08:14.774Z,21.00
2022-09-14T09:10:44.805Z,21.07
2022-09-14T09:13:16.263Z,21.13
2022-09-14T09:15:49.113Z,20.62
2022-09-14T09:18:23.801Z,21.07
2022-09-14T09:20:53.155Z,21.07
2022-09-14T09:23:23.335Z,21.33
2022-09-14T09:25:59.941Z,21.44
2022-09-14T09:28:29.725Z,20.25
2022-09-14T09:31:03.665Z,21.56
2022-09-14T09:33:51.299Z,21.41
2022-09-14T09:36:23.721Z,21.57
2022-09-14T09:38:51.513Z,21.66
2022-09-14T09:41:27.570Z,19.99
2022-09-14T09:44:23.151Z,21.70
2022-09-14T09:46:54.514Z,21.49
2022-09-14T09:49:25.783Z,21.68
2022-09-14T09:51:54.291Z,21.33
2022-09-14T09:54:26.604Z,21.67
2022-09-14T09:56:58.568Z,21.65
2022-09-14T09:59:35.141Z,21.61
2022-09-14T10:02:22.928Z,21.30
2022-09-14T10:05:02.332Z,21.71
2022-09-14T10:07:32.460Z,20.29
2022-09-14T10:10:02.676Z,21.12
2022-09-14T10:12:32.402Z,22.02
2022-09-14T10:15:09.118Z,22.17
2022-09-14T10:17:36.936Z,21.80
2022-09-14T10:20:05.582Z,20.62
2022-09-14T10:22:34.928Z,21.01
2022-09-14T10:25:04.852Z,22.01
2022-09-14T10:27:42.409Z,21.78
2022-09-14T10:30:19.183Z,21.98
2022-09-14T10:32:56.541Z,21.80
2022-09-14T10:35:33.915Z,21.94
2022-09-14T10:38:21.068Z,20.63
2022-09-14T10:40:58.012Z,21.54
2022-09-14T10:43:39.624Z,21.70
2022-09-14T10:46:13.719Z,21.68
2022-09-14T10:49:13.846Z,20.99
2022-09-14T10:51:52.303Z,21.44
2022-09-14T10:54:40.100Z,21.50
2022-09-14T10:57:20.374Z,20.65
2022-09-14T10:59:55.370Z,21.35
2022-09-14T11:02:51.086Z,20.81
2022-09-14T11:05:24.718Z,21.18
2022-09-14T11:08:09.781Z,20.88
2022-09-14T11:10:48.859Z,21.05
2022-09-14T11:13:40.320Z,20.69
2022-09-14T11:16:21.579Z,20.92
2022-09-14T11:19:00.631Z,20.82
2022-09-14T11:21:39.848Z,19.85
2022-09-14T11:24:16.076Z,20.65
2022-09-14T11:26:51.126Z,20.73
2022-09-14T11:29:25.257Z,20.72
2022-09-14T11:32:19.368Z,20.72
2022-09-14T11:34:54.607Z,20.28
2022-09-14T11:37:28.226Z,20.86
2022-09-14T11:40:04.556Z,20.94
2022-09-14T11:42:38.901Z,21.04
2022-09-14T11:45:20.960Z,21.15
2022-09-14T11:47:56.647Z,21.29
2022-09-14T11:50:28.207Z,21.23
2022-09-14T11:53:04.525Z,21.61
2022-09-14T11:55:33.110Z,20.29
2022-09-14T11:58:02.734Z,21.92
2022-09-14T12:01:02.476Z,21.96
2022-09-14T12:04:09.780Z,21.98
2022-09-14T12:06:59.991Z,20.77
2022-09-14T12:09:53.691Z,21.96
2022-09-14T12:12:36.250Z,22.21
2022-09-14T12:15:14.038Z,21.12
2022-09-14T12:17:43.160Z,20.16
2022-09-14T12:20:40.397Z,22.30
2022-09-14T12:23:21.088Z,21.42
2022-09-14T12:26:24.932Z,21.60
2022-09-14T12:28:56.914Z,23.22
2022-09-14T12:31:40.110Z,23.26
2022-09-14T13:06:05.183Z,22.29
2022-09-14T13:08:34.024Z,22.30
2022-09-14T13:11:01.866Z,22.11
2022-09-14T13:13:35.001Z,21.04
2022-09-14T13:16:06.288Z,21.95
2022-09-14T13:18:36.605Z,19.59
2022-09-14T13:21:19.908Z,21.80
2022-09-14T13:23:48.493Z,21.02
2022-09-14T13:26:20.557Z,21.68
2022-09-14T13:28:50.633Z,21.25
2022-09-14T13:31:22.336Z,21.50
2022-09-14T13:33:52.113Z,21.40
2022-09-14T13:36:24.978Z,21.34
2022-09-14T13:39:06.032Z,18.93
2022-09-14T13:41:34.424Z,20.12
2022-09-14T13:44:02.624Z,21.20
2022-09-14T13:46:30.708Z,20.33
2022-09-14T13:48:58.909Z,21.00
2022-09-14T13:51:30.468Z,21.18
2022-09-14T13:54:00.128Z,19.40
2022-09-14T13:56:31.052Z,19.80
2022-09-14T13:59:21.476Z,20.85
2022-09-14T14:01:55.847Z,21.28
2022-09-14T14:04:36.869Z,21.25
2022-09-14T14:07:15.893Z,21.29
2022-09-14T14:09:47.652Z,21.40
2022-09-14T14:12:26.461Z,20.55
2022-09-14T14:14:56.169Z,21.59
2022-09-14T14:17:32.759Z,21.63
2022-09-14T14:20:21.822Z,21.64
2022-09-14T14:22:58.698Z,19.83
2022-09-14T14:25:33.185Z,21.41
2022-09-14T14:28:03.088Z,21.50
2022-09-14T14:30:32.092Z,21.49
2022-09-14T14:33:08.779Z,20.03
2022-09-14T14:35:42.519Z,21.54
2022-09-14T14:38:16.137Z,20.02
2022-09-14T14:40:46.082Z,20.20
2022-09-14T14:43:19.564Z,20.29
2022-09-14T14:45:48.186Z,20.83
2022-09-14T14:48:18.256Z,21.08
2022-09-14T14:50:46.884Z,20.99
2022-09-14T14:53:16.447Z,20.90
2022-09-14T14:55:44.605Z,20.84
2022-09-14T14:58:17.658Z,20.68
2022-09-14T15:00:45.920Z,20.74
2022-09-14T15:03:15.346Z,20.70
2022-09-14T15:05:44.465Z,20.65
2022-09-14T15:08:13.125Z,20.42
2022-09-14T15:10:43.289Z,20.53
2022-09-14T15:13:14.554Z,19.10
2022-09-14T15:15:43.279Z,18.52
2022-09-14T15:18:11.561Z,20.34
2022-09-14T15:20:39.516Z,20.27
2022-09-14T15:23:07.982Z,20.20
2022-09-14T15:25:35.864Z,20.17
2022-09-14T15:28:05.246Z,20.11
2022-09-14T15:30:33.096Z,19.37
2022-09-14T15:33:00.942Z,20.07
2022-09-14T15:35:29.092Z,19.90
2022-09-14T15:37:57.952Z,20.05
2022-09-14T15:40:27.202Z,19.49
2022-09-14T15:42:55.211Z,19.99
2022-09-14T15:45:24.567Z,19.78
2022-09-14T15:47:52.585Z,19.94
2022-09-14T15:50:20.500Z,19.92
2022-09-14T15:52:48.395Z,19.86
2022-09-14T15:55:16.221Z,19.84
2022-09-14T15:57:44.093Z,19.84
2022-09-14T16:00:13.887Z,19.45
2022-09-14T16:02:43.070Z,19.84
2022-09-14T16:05:12.805Z,19.69
2022-09-14T16:07:40.624Z,19.83
2022-09-14T16:10:09.763Z,19.83
2022-09-14T16:12:37.734Z,19.84
2022-09-14T16:15:06.505Z,19.76
2022-09-14T16:17:34.403Z,19.85
2022-09-14T16:20:05.281Z,19.85
2022-09-14T16:22:34.061Z,19.86
2022-09-14T16:25:02.272Z,19.85
2022-09-14T16:27:33.284Z,19.85
2022-09-14T16:30:01.501Z,19.83
2022-09-14T16:32:29.376Z,19.80
2022-09-14T16:34:57.416Z,19.68
2022-09-14T16:37:27.184Z,19.72
2022-09-14T16:39:55.198Z,19.66
2022-09-14T16:42:23.644Z,19.64
2022-09-14T16:44:51.809Z,19.61
2022-09-14T16:47:19.779Z,19.58
2022-09-14T16:49:47.714Z,18.15
2022-09-14T16:52:15.509Z,19.58
2022-09-14T16:54:44.990Z,19.34
2022-09-14T16:57:15.100Z,19.55
2022-09-14T16:59:43.472Z,17.78
2022-09-14T17:02:12.044Z,19.53
2022-09-14T17:04:40.446Z,19.53
2022-09-14T17:07:10.912Z,18.45
2022-09-14T17:09:58.705Z,16.64
2022-09-14T17:12:47.729Z,19.41
2022-09-14T17:31:45.316Z,16.06
2022-09-14T17:37:57.286Z,16.26
2022-09-14T17:40:32.820Z,18.96
2022-09-14T17:43:03.349Z,16.94
2022-09-14T17:45:31.682Z,17.14
2022-09-14T17:48:02.318Z,16.62
2022-09-14T17:50:35.375Z,18.21
2022-09-14T17:53:11.583Z,15.85
2022-09-14T17:55:39.904Z,18.86
2022-09-14T17:58:21.009Z,17.56
2022-09-14T18:00:53.626Z,18.82
2022-09-14T18:03:36.126Z,18.42
2022-09-14T18:06:04.249Z,18.75
2022-09-14T18:08:55.351Z,17.25
2022-09-14T18:18:11.967Z,15.79
2022-09-14T18:20:42.390Z,16.65
2022-09-14T18:23:11.310Z,18.05
2022-09-14T18:25:41.531Z,17.93
2022-09-14T18:28:09.793Z,17.15
2022-09-14T18:30:43.545Z,17.36
2022-09-14T18:33:11.780Z,18.46
2022-09-14T18:35:42.141Z,18.34
2022-09-14T18:38:13.081Z,16.92
2022-09-14T18:40:41.110Z,17.51
2022-09-14T18:43:09.020Z,17.49
2022-09-14T18:45:37.263Z,16.37
2022-09-14T18:48:14.101Z,17.32
2022-09-14T18:50:44.063Z,16.64
2022-09-14T18:53:13.767Z,18.44
2022-09-14T18:55:41.911Z,18.45
2022-09-14T18:58:10.478Z,17.93
2022-09-14T19:00:48.272Z,18.46
2022-09-14T19:03:16.635Z,18.44
2022-09-14T19:05:46.377Z,17.43
2022-09-14T19:08:14.769Z,17.38
2022-09-14T19:10:43.227Z,18.37
2022-09-14T19:13:11.155Z,18.41
2022-09-14T19:15:41.343Z,16.89
2022-09-14T19:18:13.075Z,17.98
2022-09-14T19:21:05.348Z,17.83
2022-09-14T19:23:30.990Z,16.15
2022-09-14T19:26:03.540Z,16.36
2022-09-14T19:28:31.447Z,17.66
2022-09-14T19:30:59.581Z,16.55
2022-09-14T19:33:28.468Z,18.20
2022-09-14T19:35:56.333Z,16.33
2022-09-14T19:38:24.180Z,16.27
2022-09-14T19:40:53.862Z,16.74
2022-09-14T19:43:21.784Z,18.12
2022-09-14T19:45:49.686Z,17.59
2022-09-14T19:48:17.691Z,17.80
2022-09-14T19:50:46.067Z,15.14
2022-09-14T19:53:15.035Z,16.62
2022-09-14T19:55:44.120Z,18.09
2022-09-14T19:58:13.556Z,16.77
2022-09-14T20:00:41.514Z,16.88
2022-09-14T20:03:09.828Z,17.23
2022-09-14T20:05:37.783Z,16.60
2022-09-14T20:08:07.133Z,17.40
2022-09-14T20:10:36.076Z,17.08
2022-09-14T20:13:03.998Z,17.96
2022-09-14T20:15:33.498Z,17.86
2022-09-14T20:18:01.528Z,17.95
2022-09-14T20:20:29.720Z,15.44
2022-09-14T20:22:57.629Z,16.06
2022-09-14T20:25:25.665Z,17.94
2022-09-14T20:27:54.134Z,17.91
2022-09-14T20:30:22.357Z,17.90
2022-09-14T20:32:51.708Z,15.90
2022-09-14T20:35:19.755Z,17.08
2022-09-14T20:37:47.763Z,16.78
2022-09-14T20:40:15.854Z,16.05
2022-09-14T20:42:43.757Z,17.30
2022-09-14T20:45:12.278Z,17.31
2022-09-14T20:47:40.195Z,16.71
2022-09-14T20:50:10.214Z,16.80
2022-09-14T20:52:38.396Z,15.63
2022-09-14T20:55:08.205Z,17.79
2022-09-14T20:57:36.350Z,17.69
2022-09-14T21:00:05.002Z,17.52
2022-09-14T21:02:32.987Z,16.09
2022-09-14T21:05:01.302Z,16.95
2022-09-14T21:07:30.764Z,16.65
2022-09-14T21:09:59.270Z,16.50
2022-09-14T21:12:29.012Z,16.26
2022-09-14T21:14:57.283Z,15.21
2022-09-14T21:17:25.325Z,15.78
2022-09-14T21:19:53.695Z,14.14
2022-09-14T21:22:21.715Z,15.73
2022-09-14T21:24:51.690Z,16.21
2022-09-14T21:27:19.716Z,17.20
2022-09-14T21:29:48.112Z,15.88
2022-09-14T21:32:16.335Z,17.17
2022-09-14T21:34:44.420Z,17.19
2022-09-14T21:37:12.288Z,16.26
2022-09-14T21:39:40.359Z,14.53
2022-09-14T21:42:09.727Z,15.99
2022-09-14T21:44:38.408Z,16.08
2022-09-14T21:47:06.783Z,15.41
2022-09-14T21:49:35.037Z,16.81
2022-09-14T21:52:03.459Z,16.04
2022-09-14T21:54:31.590Z,14.21
2022-09-14T21:56:59.530Z,15.36
2022-09-14T21:59:29.229Z,15.12
2022-09-14T22:01:57.781Z,17.03
2022-09-14T22:04:26.251Z,17.17
2022-09-14T22:06:55.086Z,15.40
2022-09-14T22:09:25.685Z,15.22
2022-09-14T22:11:54.435Z,13.83
2022-09-14T22:14:27.636Z,13.92
